ホニアラ の空港の天気 - METARとTAF

ホニアラ国際空港 ( AGGH / HIR ) - ソロモン諸島 ガダルカナル島ホニアラ
飛行場実況気象(Metar)
観測時間02/18 10:00 SBT (02/17 23:00 UTC)
風向・風速西北西 6m/s
視程10km以上
天気現象煙霧
少しの雲 雲底高度 550m
全天の4割程度の雲 雲底高度 910m
全天の8割程度の雲 雲底高度 9140m
気温30℃
湿度70%
気圧1005hPa
METARAGGH 172300Z 29012KT 9999 HZ FEW018 SCT030 BKN300 30/24 Q1005
過去の天気等 Google飛行場航空写真 Wunderground天気予報

過去48時間のMETAR

飛行場予報(TAF)
発表時間: 2/18 04:30 SBT (2/17 17:30 UTC)
予報対象時間: 18日5時 SBT ~ 19日5時 SBT
風向・風速西 8m/s
視程10km以上
全天の4割程度の雲 雲底高度 550m
TAF AGGH 171730Z 1718/1818 27015KT 9999 SCT018 T 25 27 31 31 Q 1003 1005 1005 1003